sensor_id;sensor_type;location;lat;lon;timestamp;P1;durP1;ratioP1;P2;durP2;ratioP2
16862;SDS011;52193;48.216;-1.698;2024-01-30T00:00:38;49.15;;;44.30;;
16862;SDS011;52193;48.216;-1.698;2024-01-30T00:03:06;48.72;;;43.97;;
16862;SDS011;52193;48.216;-1.698;2024-01-30T00:05:33;48.72;;;44.33;;
16862;SDS011;52193;48.216;-1.698;2024-01-30T00:08:00;49.63;;;44.95;;
16862;SDS011;52193;48.216;-1.698;2024-01-30T00:10:27;50.08;;;45.10;;
16862;SDS011;52193;48.216;-1.698;2024-01-30T00:12:53;50.22;;;45.45;;
16862;SDS011;52193;48.216;-1.698;2024-01-30T00:15:20;49.10;;;44.63;;
16862;SDS011;52193;48.216;-1.698;2024-01-30T00:17:47;51.72;;;46.92;;
16862;SDS011;52193;48.216;-1.698;2024-01-30T00:20:18;51.42;;;46.45;;
16862;SDS011;52193;48.216;-1.698;2024-01-30T00:22:46;52.67;;;47.60;;
16862;SDS011;52193;48.216;-1.698;2024-01-30T00:25:13;51.85;;;47.38;;
16862;SDS011;52193;48.216;-1.698;2024-01-30T00:27:40;54.78;;;49.35;;
16862;SDS011;52193;48.216;-1.698;2024-01-30T00:30:07;53.08;;;48.00;;
16862;SDS011;52193;48.216;-1.698;2024-01-30T00:32:35;52.67;;;47.45;;
16862;SDS011;52193;48.216;-1.698;2024-01-30T00:35:02;52.58;;;47.45;;
16862;SDS011;52193;48.216;-1.698;2024-01-30T00:37:30;53.67;;;48.53;;
16862;SDS011;52193;48.216;-1.698;2024-01-30T00:39:57;54.20;;;48.85;;
16862;SDS011;52193;48.216;-1.698;2024-01-30T00:42:24;55.88;;;50.30;;
16862;SDS011;52193;48.216;-1.698;2024-01-30T00:44:51;55.90;;;50.50;;
16862;SDS011;52193;48.216;-1.698;2024-01-30T00:47:18;55.50;;;50.30;;
16862;SDS011;52193;48.216;-1.698;2024-01-30T00:49:45;56.90;;;51.25;;
16862;SDS011;52193;48.216;-1.698;2024-01-30T00:52:12;57.65;;;51.95;;
16862;SDS011;52193;48.216;-1.698;2024-01-30T00:54:40;59.35;;;53.40;;
16862;SDS011;52193;48.216;-1.698;2024-01-30T00:57:07;57.80;;;52.05;;
16862;SDS011;52193;48.216;-1.698;2024-01-30T00:59:34;58.65;;;52.88;;
16862;SDS011;52193;48.216;-1.698;2024-01-30T01:02:01;57.95;;;51.80;;
16862;SDS011;52193;48.216;-1.698;2024-01-30T01:04:28;57.03;;;51.45;;
16862;SDS011;52193;48.216;-1.698;2024-01-30T01:06:54;57.75;;;51.53;;
16862;SDS011;52193;48.216;-1.698;2024-01-30T01:09:21;57.53;;;51.78;;
16862;SDS011;52193;48.216;-1.698;2024-01-30T01:11:49;60.97;;;54.67;;
16862;SDS011;52193;48.216;-1.698;2024-01-30T01:14:16;60.30;;;54.47;;
16862;SDS011;52193;48.216;-1.698;2024-01-30T01:16:43;60.60;;;53.78;;
16862;SDS011;52193;48.216;-1.698;2024-01-30T01:19:10;61.50;;;55.17;;
16862;SDS011;52193;48.216;-1.698;2024-01-30T01:21:37;59.58;;;54.10;;
16862;SDS011;52193;48.216;-1.698;2024-01-30T01:24:04;61.67;;;55.67;;
16862;SDS011;52193;48.216;-1.698;2024-01-30T01:26:31;63.85;;;57.17;;
16862;SDS011;52193;48.216;-1.698;2024-01-30T01:28:59;61.22;;;55.13;;
16862;SDS011;52193;48.216;-1.698;2024-01-30T01:31:26;58.95;;;53.15;;
16862;SDS011;52193;48.216;-1.698;2024-01-30T01:33:54;60.90;;;55.25;;
16862;SDS011;52193;48.216;-1.698;2024-01-30T01:36:21;60.05;;;54.55;;
16862;SDS011;52193;48.216;-1.698;2024-01-30T01:38:48;58.88;;;53.40;;
16862;SDS011;52193;48.216;-1.698;2024-01-30T01:41:15;59.47;;;53.53;;
16862;SDS011;52193;48.216;-1.698;2024-01-30T01:43:42;57.63;;;52.08;;
16862;SDS011;52193;48.216;-1.698;2024-01-30T01:46:10;56.00;;;50.72;;
16862;SDS011;52193;48.216;-1.698;2024-01-30T01:48:37;55.13;;;49.92;;
16862;SDS011;52193;48.216;-1.698;2024-01-30T01:51:05;53.22;;;48.35;;
16862;SDS011;52193;48.216;-1.698;2024-01-30T01:53:33;51.45;;;46.88;;
16862;SDS011;52193;48.216;-1.698;2024-01-30T01:56:00;49.83;;;45.28;;
16862;SDS011;52193;48.216;-1.698;2024-01-30T01:58:27;48.25;;;44.08;;
16862;SDS011;52193;48.216;-1.698;2024-01-30T02:00:56;46.13;;;41.60;;
16862;SDS011;52193;48.216;-1.698;2024-01-30T02:03:25;44.15;;;40.60;;
16862;SDS011;52193;48.216;-1.698;2024-01-30T02:05:52;43.47;;;39.70;;
16862;SDS011;52193;48.216;-1.698;2024-01-30T02:08:20;40.67;;;37.55;;
16862;SDS011;52193;48.216;-1.698;2024-01-30T02:10:47;41.33;;;38.13;;
16862;SDS011;52193;48.216;-1.698;2024-01-30T02:13:14;40.53;;;37.42;;
16862;SDS011;52193;48.216;-1.698;2024-01-30T02:15:41;39.38;;;36.28;;
16862;SDS011;52193;48.216;-1.698;2024-01-30T02:18:07;39.63;;;36.80;;
16862;SDS011;52193;48.216;-1.698;2024-01-30T02:20:36;36.63;;;33.88;;
16862;SDS011;52193;48.216;-1.698;2024-01-30T02:23:06;35.03;;;32.50;;
16862;SDS011;52193;48.216;-1.698;2024-01-30T02:25:36;34.00;;;31.85;;
16862;SDS011;52193;48.216;-1.698;2024-01-30T02:28:09;32.58;;;30.48;;
16862;SDS011;52193;48.216;-1.698;2024-01-30T02:30:36;31.83;;;29.83;;
16862;SDS011;52193;48.216;-1.698;2024-01-30T02:33:03;31.85;;;29.85;;
16862;SDS011;52193;48.216;-1.698;2024-01-30T02:35:30;32.00;;;29.90;;
16862;SDS011;52193;48.216;-1.698;2024-01-30T02:37:58;32.03;;;30.08;;
16862;SDS011;52193;48.216;-1.698;2024-01-30T02:40:26;31.33;;;29.33;;
16862;SDS011;52193;48.216;-1.698;2024-01-30T02:42:53;32.15;;;30.15;;
16862;SDS011;52193;48.216;-1.698;2024-01-30T02:45:20;32.13;;;30.10;;
16862;SDS011;52193;48.216;-1.698;2024-01-30T02:47:47;32.67;;;30.58;;
16862;SDS011;52193;48.216;-1.698;2024-01-30T02:50:14;32.25;;;30.15;;
16862;SDS011;52193;48.216;-1.698;2024-01-30T02:52:41;32.17;;;30.17;;
16862;SDS011;52193;48.216;-1.698;2024-01-30T02:55:09;33.22;;;31.08;;
16862;SDS011;52193;48.216;-1.698;2024-01-30T02:57:37;33.83;;;31.63;;
16862;SDS011;52193;48.216;-1.698;2024-01-30T03:00:05;34.38;;;31.98;;
16862;SDS011;52193;48.216;-1.698;2024-01-30T03:02:34;33.38;;;31.08;;
16862;SDS011;52193;48.216;-1.698;2024-01-30T03:05:01;33.92;;;31.63;;
16862;SDS011;52193;48.216;-1.698;2024-01-30T03:07:29;34.65;;;32.33;;
16862;SDS011;52193;48.216;-1.698;2024-01-30T03:09:56;33.80;;;31.60;;
16862;SDS011;52193;48.216;-1.698;2024-01-30T03:12:22;33.97;;;31.58;;
16862;SDS011;52193;48.216;-1.698;2024-01-30T03:14:51;33.72;;;31.58;;
16862;SDS011;52193;48.216;-1.698;2024-01-30T03:17:17;33.55;;;31.35;;
16862;SDS011;52193;48.216;-1.698;2024-01-30T03:19:44;32.33;;;30.20;;
16862;SDS011;52193;48.216;-1.698;2024-01-30T03:22:11;33.40;;;31.25;;
16862;SDS011;52193;48.216;-1.698;2024-01-30T03:24:38;32.97;;;30.77;;
16862;SDS011;52193;48.216;-1.698;2024-01-30T03:27:05;32.58;;;30.48;;
16862;SDS011;52193;48.216;-1.698;2024-01-30T03:29:32;33.22;;;31.15;;
16862;SDS011;52193;48.216;-1.698;2024-01-30T03:32:00;31.90;;;29.75;;
16862;SDS011;52193;48.216;-1.698;2024-01-30T03:34:29;31.67;;;29.65;;
16862;SDS011;52193;48.216;-1.698;2024-01-30T03:36:56;31.70;;;29.80;;
16862;SDS011;52193;48.216;-1.698;2024-01-30T03:39:22;32.08;;;30.15;;
16862;SDS011;52193;48.216;-1.698;2024-01-30T03:41:49;30.88;;;29.15;;
16862;SDS011;52193;48.216;-1.698;2024-01-30T03:44:16;30.85;;;29.08;;
16862;SDS011;52193;48.216;-1.698;2024-01-30T03:46:43;30.70;;;28.85;;
16862;SDS011;52193;48.216;-1.698;2024-01-30T03:49:11;30.48;;;28.70;;
16862;SDS011;52193;48.216;-1.698;2024-01-30T03:51:38;30.77;;;29.00;;
16862;SDS011;52193;48.216;-1.698;2024-01-30T03:54:05;31.00;;;29.10;;
16862;SDS011;52193;48.216;-1.698;2024-01-30T03:56:32;30.02;;;28.33;;
16862;SDS011;52193;48.216;-1.698;2024-01-30T03:58:59;29.95;;;28.35;;
16862;SDS011;52193;48.216;-1.698;2024-01-30T04:01:27;30.02;;;28.23;;
16862;SDS011;52193;48.216;-1.698;2024-01-30T04:03:54;29.70;;;28.02;;
16862;SDS011;52193;48.216;-1.698;2024-01-30T04:06:22;29.60;;;27.90;;
16862;SDS011;52193;48.216;-1.698;2024-01-30T04:08:49;29.98;;;28.25;;
16862;SDS011;52193;48.216;-1.698;2024-01-30T04:11:18;30.15;;;28.35;;
16862;SDS011;52193;48.216;-1.698;2024-01-30T04:13:45;29.50;;;27.90;;
16862;SDS011;52193;48.216;-1.698;2024-01-30T04:16:19;29.25;;;27.73;;
16862;SDS011;52193;48.216;-1.698;2024-01-30T04:18:46;27.58;;;26.27;;
16862;SDS011;52193;48.216;-1.698;2024-01-30T04:21:13;27.05;;;25.65;;
16862;SDS011;52193;48.216;-1.698;2024-01-30T04:23:41;25.65;;;24.35;;
16862;SDS011;52193;48.216;-1.698;2024-01-30T04:26:08;25.63;;;24.25;;
16862;SDS011;52193;48.216;-1.698;2024-01-30T04:28:35;24.85;;;23.73;;
16862;SDS011;52193;48.216;-1.698;2024-01-30T04:31:02;23.65;;;22.65;;
16862;SDS011;52193;48.216;-1.698;2024-01-30T04:33:30;22.63;;;21.73;;
16862;SDS011;52193;48.216;-1.698;2024-01-30T04:35:56;22.23;;;21.25;;
16862;SDS011;52193;48.216;-1.698;2024-01-30T04:38:23;21.25;;;20.35;;
16862;SDS011;52193;48.216;-1.698;2024-01-30T04:40:51;20.98;;;20.08;;
16862;SDS011;52193;48.216;-1.698;2024-01-30T04:43:18;20.75;;;19.77;;
16862;SDS011;52193;48.216;-1.698;2024-01-30T04:45:46;21.27;;;20.27;;
16862;SDS011;52193;48.216;-1.698;2024-01-30T04:48:13;21.13;;;20.15;;
16862;SDS011;52193;48.216;-1.698;2024-01-30T04:50:40;20.92;;;20.05;;
16862;SDS011;52193;48.216;-1.698;2024-01-30T04:53:07;20.58;;;19.73;;
16862;SDS011;52193;48.216;-1.698;2024-01-30T04:55:34;20.33;;;19.52;;
16862;SDS011;52193;48.216;-1.698;2024-01-30T04:58:03;19.75;;;18.95;;
16862;SDS011;52193;48.216;-1.698;2024-01-30T05:00:30;18.50;;;17.80;;
16862;SDS011;52193;48.216;-1.698;2024-01-30T05:02:57;17.90;;;17.25;;
16862;SDS011;52193;48.216;-1.698;2024-01-30T05:05:24;16.95;;;16.35;;
16862;SDS011;52193;48.216;-1.698;2024-01-30T05:07:50;16.75;;;16.13;;
16862;SDS011;52193;48.216;-1.698;2024-01-30T05:10:17;16.08;;;15.48;;
16862;SDS011;52193;48.216;-1.698;2024-01-30T05:12:44;16.00;;;15.40;;
16862;SDS011;52193;48.216;-1.698;2024-01-30T05:15:12;15.43;;;14.82;;
16862;SDS011;52193;48.216;-1.698;2024-01-30T05:17:39;15.30;;;14.63;;
16862;SDS011;52193;48.216;-1.698;2024-01-30T05:20:07;16.15;;;15.55;;
16862;SDS011;52193;48.216;-1.698;2024-01-30T05:22:35;15.15;;;14.65;;
16862;SDS011;52193;48.216;-1.698;2024-01-30T05:25:03;14.13;;;13.52;;
16862;SDS011;52193;48.216;-1.698;2024-01-30T05:27:30;13.93;;;13.43;;
16862;SDS011;52193;48.216;-1.698;2024-01-30T05:29:57;14.10;;;13.50;;
16862;SDS011;52193;48.216;-1.698;2024-01-30T05:32:25;14.82;;;14.23;;
16862;SDS011;52193;48.216;-1.698;2024-01-30T05:34:52;14.07;;;13.57;;
16862;SDS011;52193;48.216;-1.698;2024-01-30T05:37:19;13.70;;;13.10;;
16862;SDS011;52193;48.216;-1.698;2024-01-30T05:39:46;13.57;;;13.07;;
16862;SDS011;52193;48.216;-1.698;2024-01-30T05:42:13;12.07;;;11.57;;
16862;SDS011;52193;48.216;-1.698;2024-01-30T05:44:41;11.00;;;10.60;;
16862;SDS011;52193;48.216;-1.698;2024-01-30T05:47:08;11.00;;;10.60;;
16862;SDS011;52193;48.216;-1.698;2024-01-30T05:49:37;11.55;;;11.15;;
16862;SDS011;52193;48.216;-1.698;2024-01-30T05:52:04;11.07;;;10.68;;
16862;SDS011;52193;48.216;-1.698;2024-01-30T05:54:31;11.30;;;10.90;;
16862;SDS011;52193;48.216;-1.698;2024-01-30T05:56:58;11.80;;;11.18;;
16862;SDS011;52193;48.216;-1.698;2024-01-30T05:59:25;11.55;;;11.05;;
16862;SDS011;52193;48.216;-1.698;2024-01-30T06:01:52;11.30;;;10.80;;
16862;SDS011;52193;48.216;-1.698;2024-01-30T06:04:19;10.40;;;10.00;;
16862;SDS011;52193;48.216;-1.698;2024-01-30T06:06:47;10.85;;;10.45;;
16862;SDS011;52193;48.216;-1.698;2024-01-30T06:09:14;10.48;;;9.90;;
16862;SDS011;52193;48.216;-1.698;2024-01-30T06:11:41;10.70;;;10.30;;
16862;SDS011;52193;48.216;-1.698;2024-01-30T06:14:08;10.30;;;9.90;;
16862;SDS011;52193;48.216;-1.698;2024-01-30T06:16:35;10.25;;;9.85;;
16862;SDS011;52193;48.216;-1.698;2024-01-30T06:19:01;10.75;;;10.35;;
16862;SDS011;52193;48.216;-1.698;2024-01-30T06:21:28;10.27;;;9.98;;
16862;SDS011;52193;48.216;-1.698;2024-01-30T06:23:57;28.90;;;27.13;;
16862;SDS011;52193;48.216;-1.698;2024-01-30T06:26:24;10.57;;;10.18;;
16862;SDS011;52193;48.216;-1.698;2024-01-30T06:28:50;10.30;;;9.82;;
16862;SDS011;52193;48.216;-1.698;2024-01-30T06:31:17;10.70;;;10.30;;
16862;SDS011;52193;48.216;-1.698;2024-01-30T06:33:46;10.30;;;9.90;;
16862;SDS011;52193;48.216;-1.698;2024-01-30T06:36:13;10.40;;;9.90;;
16862;SDS011;52193;48.216;-1.698;2024-01-30T06:38:40;10.68;;;10.27;;
16862;SDS011;52193;48.216;-1.698;2024-01-30T06:41:08;10.80;;;10.40;;
16862;SDS011;52193;48.216;-1.698;2024-01-30T06:43:35;10.30;;;9.90;;
16862;SDS011;52193;48.216;-1.698;2024-01-30T06:46:02;10.20;;;9.80;;
16862;SDS011;52193;48.216;-1.698;2024-01-30T06:48:29;10.05;;;9.57;;
16862;SDS011;52193;48.216;-1.698;2024-01-30T06:50:56;10.48;;;9.98;;
16862;SDS011;52193;48.216;-1.698;2024-01-30T06:53:23;10.45;;;9.98;;
16862;SDS011;52193;48.216;-1.698;2024-01-30T06:55:51;10.18;;;9.77;;
16862;SDS011;52193;48.216;-1.698;2024-01-30T06:58:19;10.63;;;10.02;;
16862;SDS011;52193;48.216;-1.698;2024-01-30T07:00:46;10.60;;;10.10;;
16862;SDS011;52193;48.216;-1.698;2024-01-30T07:03:13;11.05;;;10.35;;
16862;SDS011;52193;48.216;-1.698;2024-01-30T07:05:40;9.98;;;9.57;;
16862;SDS011;52193;48.216;-1.698;2024-01-30T07:08:07;10.63;;;10.13;;
16862;SDS011;52193;48.216;-1.698;2024-01-30T07:10:34;10.90;;;10.43;;
16862;SDS011;52193;48.216;-1.698;2024-01-30T07:13:01;11.10;;;10.60;;
16862;SDS011;52193;48.216;-1.698;2024-01-30T07:15:30;10.98;;;10.50;;
16862;SDS011;52193;48.216;-1.698;2024-01-30T07:17:57;11.57;;;11.07;;
16862;SDS011;52193;48.216;-1.698;2024-01-30T07:20:24;11.13;;;10.73;;
16862;SDS011;52193;48.216;-1.698;2024-01-30T07:22:51;11.60;;;11.10;;
16862;SDS011;52193;48.216;-1.698;2024-01-30T07:25:18;12.40;;;11.88;;
16862;SDS011;52193;48.216;-1.698;2024-01-30T07:27:46;13.35;;;12.40;;
16862;SDS011;52193;48.216;-1.698;2024-01-30T07:30:13;13.27;;;12.48;;
16862;SDS011;52193;48.216;-1.698;2024-01-30T07:32:43;13.15;;;12.52;;
16862;SDS011;52193;48.216;-1.698;2024-01-30T07:35:10;12.77;;;12.18;;
16862;SDS011;52193;48.216;-1.698;2024-01-30T07:37:37;12.35;;;11.85;;
16862;SDS011;52193;48.216;-1.698;2024-01-30T07:40:04;12.93;;;12.23;;
16862;SDS011;52193;48.216;-1.698;2024-01-30T07:42:32;13.35;;;12.75;;
16862;SDS011;52193;48.216;-1.698;2024-01-30T07:44:59;12.93;;;12.25;;
16862;SDS011;52193;48.216;-1.698;2024-01-30T07:47:27;12.38;;;11.77;;
16862;SDS011;52193;48.216;-1.698;2024-01-30T07:49:55;12.32;;;11.77;;
16862;SDS011;52193;48.216;-1.698;2024-01-30T07:52:22;12.23;;;11.63;;
16862;SDS011;52193;48.216;-1.698;2024-01-30T07:54:49;13.00;;;12.40;;
16862;SDS011;52193;48.216;-1.698;2024-01-30T07:57:16;12.65;;;12.15;;
16862;SDS011;52193;48.216;-1.698;2024-01-30T07:59:43;13.45;;;12.75;;
16862;SDS011;52193;48.216;-1.698;2024-01-30T08:02:11;13.45;;;12.85;;
16862;SDS011;52193;48.216;-1.698;2024-01-30T08:04:46;13.32;;;12.40;;
16862;SDS011;52193;48.216;-1.698;2024-01-30T08:07:15;12.77;;;12.23;;
16862;SDS011;52193;48.216;-1.698;2024-01-30T08:09:43;12.60;;;12.10;;
16862;SDS011;52193;48.216;-1.698;2024-01-30T08:12:10;12.40;;;11.90;;
16862;SDS011;52193;48.216;-1.698;2024-01-30T08:14:37;11.55;;;11.10;;
16862;SDS011;52193;48.216;-1.698;2024-01-30T08:17:05;12.38;;;11.88;;
16862;SDS011;52193;48.216;-1.698;2024-01-30T08:19:32;13.07;;;12.48;;
16862;SDS011;52193;48.216;-1.698;2024-01-30T08:21:59;14.48;;;13.65;;
16862;SDS011;52193;48.216;-1.698;2024-01-30T08:24:27;13.00;;;12.40;;
16862;SDS011;52193;48.216;-1.698;2024-01-30T08:26:54;12.25;;;11.65;;
16862;SDS011;52193;48.216;-1.698;2024-01-30T08:29:21;13.57;;;12.90;;
16862;SDS011;52193;48.216;-1.698;2024-01-30T08:31:48;13.02;;;12.35;;
16862;SDS011;52193;48.216;-1.698;2024-01-30T08:34:15;14.90;;;13.98;;
16862;SDS011;52193;48.216;-1.698;2024-01-30T08:36:42;15.73;;;14.75;;
16862;SDS011;52193;48.216;-1.698;2024-01-30T08:39:09;13.82;;;13.23;;
16862;SDS011;52193;48.216;-1.698;2024-01-30T08:41:37;14.95;;;14.15;;
16862;SDS011;52193;48.216;-1.698;2024-01-30T08:44:05;13.90;;;13.13;;
16862;SDS011;52193;48.216;-1.698;2024-01-30T08:46:32;13.10;;;12.40;;
16862;SDS011;52193;48.216;-1.698;2024-01-30T08:48:59;12.75;;;12.10;;
16862;SDS011;52193;48.216;-1.698;2024-01-30T08:51:26;12.60;;;12.10;;
16862;SDS011;52193;48.216;-1.698;2024-01-30T08:53:53;12.63;;;12.02;;
16862;SDS011;52193;48.216;-1.698;2024-01-30T08:56:20;13.18;;;12.38;;
16862;SDS011;52193;48.216;-1.698;2024-01-30T08:58:48;12.50;;;12.00;;
16862;SDS011;52193;48.216;-1.698;2024-01-30T09:01:15;12.52;;;11.80;;
16862;SDS011;52193;48.216;-1.698;2024-01-30T09:03:42;13.07;;;12.48;;
16862;SDS011;52193;48.216;-1.698;2024-01-30T09:06:11;13.07;;;12.45;;
16862;SDS011;52193;48.216;-1.698;2024-01-30T09:08:38;13.13;;;12.63;;
16862;SDS011;52193;48.216;-1.698;2024-01-30T09:11:08;13.48;;;12.88;;
16862;SDS011;52193;48.216;-1.698;2024-01-30T09:13:35;13.93;;;12.93;;
16862;SDS011;52193;48.216;-1.698;2024-01-30T09:16:04;13.43;;;12.65;;
16862;SDS011;52193;48.216;-1.698;2024-01-30T09:18:32;13.20;;;12.60;;
16862;SDS011;52193;48.216;-1.698;2024-01-30T09:20:59;15.00;;;14.23;;
16862;SDS011;52193;48.216;-1.698;2024-01-30T09:23:27;15.57;;;14.73;;
16862;SDS011;52193;48.216;-1.698;2024-01-30T09:25:54;95.72;;;83.50;;
16862;SDS011;52193;48.216;-1.698;2024-01-30T09:28:21;56.83;;;51.30;;
16862;SDS011;52193;48.216;-1.698;2024-01-30T09:30:48;32.65;;;30.15;;
16862;SDS011;52193;48.216;-1.698;2024-01-30T09:33:16;18.15;;;17.15;;
16862;SDS011;52193;48.216;-1.698;2024-01-30T09:35:43;22.83;;;21.02;;
16862;SDS011;52193;48.216;-1.698;2024-01-30T09:38:10;37.20;;;33.60;;
16862;SDS011;52193;48.216;-1.698;2024-01-30T09:40:36;15.25;;;14.35;;
16862;SDS011;52193;48.216;-1.698;2024-01-30T09:43:03;11.57;;;11.07;;
16862;SDS011;52193;48.216;-1.698;2024-01-30T09:45:30;11.70;;;11.10;;
16862;SDS011;52193;48.216;-1.698;2024-01-30T09:47:59;11.90;;;11.30;;
16862;SDS011;52193;48.216;-1.698;2024-01-30T09:50:28;13.40;;;12.80;;
16862;SDS011;52193;48.216;-1.698;2024-01-30T09:52:55;11.55;;;10.95;;
16862;SDS011;52193;48.216;-1.698;2024-01-30T09:55:24;10.90;;;10.40;;
16862;SDS011;52193;48.216;-1.698;2024-01-30T09:57:52;10.95;;;10.48;;
16862;SDS011;52193;48.216;-1.698;2024-01-30T10:00:19;11.32;;;10.82;;
16862;SDS011;52193;48.216;-1.698;2024-01-30T10:02:48;11.63;;;11.02;;
16862;SDS011;52193;48.216;-1.698;2024-01-30T10:05:15;11.60;;;11.10;;
16862;SDS011;52193;48.216;-1.698;2024-01-30T10:07:54;11.65;;;11.15;;
16862;SDS011;52193;48.216;-1.698;2024-01-30T10:10:22;11.63;;;11.13;;
16862;SDS011;52193;48.216;-1.698;2024-01-30T10:12:49;11.60;;;11.00;;
16862;SDS011;52193;48.216;-1.698;2024-01-30T10:15:17;11.68;;;11.18;;
16862;SDS011;52193;48.216;-1.698;2024-01-30T10:17:44;11.30;;;10.80;;
16862;SDS011;52193;48.216;-1.698;2024-01-30T10:20:11;11.93;;;11.23;;
16862;SDS011;52193;48.216;-1.698;2024-01-30T10:22:39;12.00;;;11.50;;
16862;SDS011;52193;48.216;-1.698;2024-01-30T10:25:09;12.52;;;12.02;;
16862;SDS011;52193;48.216;-1.698;2024-01-30T10:27:36;11.90;;;11.38;;
16862;SDS011;52193;48.216;-1.698;2024-01-30T10:30:03;11.98;;;11.38;;
16862;SDS011;52193;48.216;-1.698;2024-01-30T10:32:31;11.93;;;11.43;;
16862;SDS011;52193;48.216;-1.698;2024-01-30T10:34:58;11.68;;;11.18;;
16862;SDS011;52193;48.216;-1.698;2024-01-30T10:37:25;11.80;;;11.30;;
16862;SDS011;52193;48.216;-1.698;2024-01-30T10:39:53;23.90;;;22.38;;
16862;SDS011;52193;48.216;-1.698;2024-01-30T10:42:25;19.15;;;17.92;;
16862;SDS011;52193;48.216;-1.698;2024-01-30T10:44:56;13.30;;;12.45;;
16862;SDS011;52193;48.216;-1.698;2024-01-30T10:47:26;15.15;;;14.35;;
16862;SDS011;52193;48.216;-1.698;2024-01-30T10:49:54;12.90;;;12.40;;
16862;SDS011;52193;48.216;-1.698;2024-01-30T10:52:22;14.77;;;14.07;;
16862;SDS011;52193;48.216;-1.698;2024-01-30T10:54:50;15.02;;;14.32;;
16862;SDS011;52193;48.216;-1.698;2024-01-30T10:57:18;12.60;;;12.00;;
16862;SDS011;52193;48.216;-1.698;2024-01-30T10:59:46;20.40;;;19.30;;
16862;SDS011;52193;48.216;-1.698;2024-01-30T11:02:13;12.27;;;11.68;;
16862;SDS011;52193;48.216;-1.698;2024-01-30T11:04:41;12.50;;;11.82;;
16862;SDS011;52193;48.216;-1.698;2024-01-30T11:07:14;12.93;;;12.32;;
16862;SDS011;52193;48.216;-1.698;2024-01-30T11:09:48;12.68;;;12.00;;
16862;SDS011;52193;48.216;-1.698;2024-01-30T11:12:16;12.27;;;11.73;;
16862;SDS011;52193;48.216;-1.698;2024-01-30T11:14:43;12.43;;;11.65;;
16862;SDS011;52193;48.216;-1.698;2024-01-30T11:17:11;11.30;;;10.60;;
16862;SDS011;52193;48.216;-1.698;2024-01-30T11:19:38;11.15;;;10.65;;
16862;SDS011;52193;48.216;-1.698;2024-01-30T11:22:07;11.15;;;10.65;;
16862;SDS011;52193;48.216;-1.698;2024-01-30T11:24:38;15.02;;;14.02;;
16862;SDS011;52193;48.216;-1.698;2024-01-30T11:27:08;12.55;;;11.75;;
16862;SDS011;52193;48.216;-1.698;2024-01-30T11:29:35;11.75;;;11.05;;
16862;SDS011;52193;48.216;-1.698;2024-01-30T11:32:03;14.20;;;13.43;;
16862;SDS011;52193;48.216;-1.698;2024-01-30T11:34:31;11.20;;;10.63;;
16862;SDS011;52193;48.216;-1.698;2024-01-30T11:36:59;12.30;;;11.60;;
16862;SDS011;52193;48.216;-1.698;2024-01-30T11:39:29;11.45;;;10.82;;
16862;SDS011;52193;48.216;-1.698;2024-01-30T11:41:56;12.32;;;11.68;;
16862;SDS011;52193;48.216;-1.698;2024-01-30T11:44:24;10.38;;;9.88;;
16862;SDS011;52193;48.216;-1.698;2024-01-30T11:46:52;9.93;;;9.43;;
16862;SDS011;52193;48.216;-1.698;2024-01-30T11:49:18;9.82;;;9.25;;
16862;SDS011;52193;48.216;-1.698;2024-01-30T11:51:47;10.45;;;9.77;;
16862;SDS011;52193;48.216;-1.698;2024-01-30T11:54:14;9.82;;;9.27;;
16862;SDS011;52193;48.216;-1.698;2024-01-30T11:56:42;9.55;;;9.05;;
16862;SDS011;52193;48.216;-1.698;2024-01-30T11:59:09;10.50;;;9.95;;
16862;SDS011;52193;48.216;-1.698;2024-01-30T12:01:36;9.60;;;9.10;;
16862;SDS011;52193;48.216;-1.698;2024-01-30T12:04:03;9.85;;;9.35;;
16862;SDS011;52193;48.216;-1.698;2024-01-30T12:06:33;9.50;;;9.00;;
16862;SDS011;52193;48.216;-1.698;2024-01-30T12:09:02;9.43;;;8.85;;
16862;SDS011;52193;48.216;-1.698;2024-01-30T12:11:30;9.25;;;8.55;;
16862;SDS011;52193;48.216;-1.698;2024-01-30T12:13:57;9.70;;;9.10;;
16862;SDS011;52193;48.216;-1.698;2024-01-30T12:16:24;8.75;;;8.25;;
16862;SDS011;52193;48.216;-1.698;2024-01-30T12:18:58;8.75;;;8.15;;
16862;SDS011;52193;48.216;-1.698;2024-01-30T12:21:26;7.93;;;7.53;;
16862;SDS011;52193;48.216;-1.698;2024-01-30T12:23:53;7.90;;;7.50;;
16862;SDS011;52193;48.216;-1.698;2024-01-30T12:26:21;7.97;;;7.55;;
16862;SDS011;52193;48.216;-1.698;2024-01-30T12:28:49;6.82;;;6.53;;
16862;SDS011;52193;48.216;-1.698;2024-01-30T12:31:16;7.25;;;6.95;;
16862;SDS011;52193;48.216;-1.698;2024-01-30T12:33:43;6.82;;;6.53;;
16862;SDS011;52193;48.216;-1.698;2024-01-30T12:36:11;6.85;;;6.55;;
16862;SDS011;52193;48.216;-1.698;2024-01-30T12:38:38;6.57;;;6.30;;
16862;SDS011;52193;48.216;-1.698;2024-01-30T12:41:06;7.55;;;7.15;;
16862;SDS011;52193;48.216;-1.698;2024-01-30T12:43:36;8.77;;;8.18;;
16862;SDS011;52193;48.216;-1.698;2024-01-30T12:46:05;24.27;;;22.10;;
16862;SDS011;52193;48.216;-1.698;2024-01-30T12:48:32;7.68;;;7.07;;
16862;SDS011;52193;48.216;-1.698;2024-01-30T12:50:59;50.65;;;38.67;;
16862;SDS011;52193;48.216;-1.698;2024-01-30T12:53:26;26.20;;;23.40;;
16862;SDS011;52193;48.216;-1.698;2024-01-30T12:55:53;10.10;;;9.30;;
16862;SDS011;52193;48.216;-1.698;2024-01-30T12:58:20;54.35;;;47.03;;
16862;SDS011;52193;48.216;-1.698;2024-01-30T13:00:48;9.57;;;8.98;;
16862;SDS011;52193;48.216;-1.698;2024-01-30T13:03:15;5.82;;;5.53;;
16862;SDS011;52193;48.216;-1.698;2024-01-30T13:05:42;16.40;;;15.13;;
16862;SDS011;52193;48.216;-1.698;2024-01-30T13:08:09;25.77;;;23.42;;
16862;SDS011;52193;48.216;-1.698;2024-01-30T13:10:36;10.40;;;9.75;;
16862;SDS011;52193;48.216;-1.698;2024-01-30T13:13:03;8.80;;;8.30;;
16862;SDS011;52193;48.216;-1.698;2024-01-30T13:15:30;16.88;;;15.63;;
16862;SDS011;52193;48.216;-1.698;2024-01-30T13:17:58;12.13;;;11.43;;
16862;SDS011;52193;48.216;-1.698;2024-01-30T13:20:25;13.05;;;12.07;;
16862;SDS011;52193;48.216;-1.698;2024-01-30T13:22:52;16.42;;;15.25;;
16862;SDS011;52193;48.216;-1.698;2024-01-30T13:25:19;14.45;;;13.45;;
16862;SDS011;52193;48.216;-1.698;2024-01-30T13:27:46;25.38;;;23.38;;
16862;SDS011;52193;48.216;-1.698;2024-01-30T13:30:12;6.50;;;6.20;;
16862;SDS011;52193;48.216;-1.698;2024-01-30T13:32:39;5.40;;;5.10;;
16862;SDS011;52193;48.216;-1.698;2024-01-30T13:35:10;4.90;;;4.70;;
16862;SDS011;52193;48.216;-1.698;2024-01-30T13:37:37;7.57;;;7.07;;
16862;SDS011;52193;48.216;-1.698;2024-01-30T13:40:05;5.38;;;5.07;;
16862;SDS011;52193;48.216;-1.698;2024-01-30T13:42:34;6.30;;;6.00;;
16862;SDS011;52193;48.216;-1.698;2024-01-30T13:45:00;12.52;;;11.80;;
16862;SDS011;52193;48.216;-1.698;2024-01-30T13:47:27;15.65;;;14.70;;
16862;SDS011;52193;48.216;-1.698;2024-01-30T13:49:54;10.77;;;10.18;;
16862;SDS011;52193;48.216;-1.698;2024-01-30T13:52:22;9.68;;;9.07;;
16862;SDS011;52193;48.216;-1.698;2024-01-30T13:54:50;33.60;;;30.80;;
16862;SDS011;52193;48.216;-1.698;2024-01-30T13:57:16;14.07;;;13.18;;
16862;SDS011;52193;48.216;-1.698;2024-01-30T13:59:43;5.68;;;5.38;;
16862;SDS011;52193;48.216;-1.698;2024-01-30T14:02:10;5.72;;;5.43;;
16862;SDS011;52193;48.216;-1.698;2024-01-30T14:04:37;11.07;;;10.43;;
16862;SDS011;52193;48.216;-1.698;2024-01-30T14:07:05;18.85;;;17.65;;
16862;SDS011;52193;48.216;-1.698;2024-01-30T14:09:33;6.70;;;6.22;;
16862;SDS011;52193;48.216;-1.698;2024-01-30T14:12:01;6.43;;;6.00;;
16862;SDS011;52193;48.216;-1.698;2024-01-30T14:14:28;8.45;;;7.95;;